Time;durP1;ratioP1;P1;durP2;ratioP2;P2;SDS_P1;SDS_P2;PMS_P1;PMS_P2;Temp;Humidity;BMP_temperature;BMP_pressure;BME280_temperature;BME280_humidity;BME280_pressure;Samples;Min_cycle;Max_cycle;Signal;HPM_P1;HPM_P2
2022/03/22 00:00:32;;;;;;;19.40;14.57;;;13.80;53.00;;;;;;5012001;28;21026;-83
2022/03/22 00:02:59;;;;;;;21.43;15.83;;;13.80;53.20;;;;;;5008849;28;20454;-84
2022/03/22 00:05:26;;;;;;;19.43;15.33;;;13.90;53.00;;;;;;5011404;28;20493;-83
2022/03/22 00:07:53;;;;;;;20.33;14.83;;;13.90;53.00;;;;;;5017498;28;20458;-83
2022/03/22 00:10:19;;;;;;;17.97;15.13;;;13.90;53.40;;;;;;5014875;28;20450;-83
2022/03/22 00:12:48;;;;;;;19.43;15.60;;;13.90;53.50;;;;;;5014943;28;20524;-83
2022/03/22 00:15:17;;;;;;;22.17;14.80;;;13.90;53.20;;;;;;5013922;28;20500;-85
2022/03/22 00:18:04;;;;;;;16.57;14.80;;;13.70;53.30;;;;;;5015796;28;20461;-83
2022/03/22 00:20:30;;;;;;;18.07;14.70;;;13.70;53.50;;;;;;5028134;28;20478;-84
2022/03/22 00:22:58;;;;;;;19.73;15.87;;;13.80;54.20;;;;;;5005664;28;20477;-85
2022/03/22 00:25:25;;;;;;;17.90;15.00;;;13.90;54.00;;;;;;5004260;28;20505;-83
2022/03/22 00:27:54;;;;;;;20.27;16.63;;;13.90;53.90;;;;;;5016982;28;20480;-83
2022/03/22 00:30:26;;;;;;;19.33;15.10;;;13.80;53.90;;;;;;5013353;28;20466;-83
2022/03/22 00:32:55;;;;;;;18.30;14.77;;;13.90;53.70;;;;;;5004668;28;20466;-83
2022/03/22 00:35:27;;;;;;;16.70;14.20;;;13.80;53.50;;;;;;5031029;28;20466;-83
2022/03/22 00:37:56;;;;;;;20.83;14.20;;;13.70;53.60;;;;;;5014751;28;20446;-83
2022/03/22 00:40:28;;;;;;;16.30;14.47;;;13.70;53.30;;;;;;5014146;28;20458;-83
2022/03/22 00:42:55;;;;;;;16.90;14.23;;;13.60;53.80;;;;;;5028251;28;20644;-82
2022/03/22 00:45:27;;;;;;;18.77;14.57;;;13.50;53.80;;;;;;5015136;28;20473;-84
2022/03/22 00:47:56;;;;;;;22.03;14.80;;;13.50;53.90;;;;;;5030741;28;20461;-84
2022/03/22 00:50:27;;;;;;;17.47;13.83;;;13.30;53.90;;;;;;5013784;28;20468;-84
2022/03/22 00:52:55;;;;;;;20.43;15.70;;;13.40;54.10;;;;;;5028240;28;20446;-84
2022/03/22 00:55:21;;;;;;;17.30;13.60;;;13.40;54.10;;;;;;5016661;28;20482;-85
2022/03/22 00:57:48;;;;;;;18.53;15.27;;;13.30;54.10;;;;;;5012617;28;20999;-85
2022/03/22 01:00:15;;;;;;;22.03;14.57;;;13.30;54.30;;;;;;5013803;28;20840;-84
2022/03/22 01:02:50;;;;;;;20.13;15.70;;;13.50;54.20;;;;;;5015286;28;20458;-84
2022/03/22 01:05:19;;;;;;;19.50;14.50;;;13.40;54.10;;;;;;5011234;28;20495;-84
2022/03/22 01:07:49;;;;;;;18.80;14.77;;;13.40;53.50;;;;;;5008498;28;20459;-85
2022/03/22 01:10:18;;;;;;;19.70;14.40;;;13.20;53.50;;;;;;5012599;28;20975;-83
2022/03/22 01:12:46;;;;;;;19.43;14.83;;;13.30;53.80;;;;;;5010594;28;20802;-84
2022/03/22 01:15:18;;;;;;;19.57;13.53;;;13.20;53.70;;;;;;5024901;28;20474;-84
2022/03/22 01:17:47;;;;;;;17.00;14.73;;;13.10;53.80;;;;;;5015788;28;21118;-83
2022/03/22 01:20:16;;;;;;;20.60;14.10;;;12.90;54.00;;;;;;5003462;28;20791;-84
2022/03/22 01:22:45;;;;;;;15.27;13.00;;;13.00;54.10;;;;;;5006958;28;20478;-83
2022/03/22 01:25:15;;;;;;;19.90;14.77;;;13.00;53.70;;;;;;5006911;28;20505;-84
2022/03/22 01:27:43;;;;;;;18.30;13.17;;;13.10;53.70;;;;;;5004730;28;20463;-85
2022/03/22 01:30:12;;;;;;;19.37;14.20;;;13.30;53.50;;;;;;5015062;28;20454;-84
2022/03/22 01:32:39;;;;;;;15.93;13.80;;;13.10;53.40;;;;;;5010375;28;20468;-82
2022/03/22 01:35:09;;;;;;;19.20;14.83;;;13.10;53.50;;;;;;5010045;28;20475;-84
2022/03/22 01:37:37;;;;;;;16.17;13.30;;;12.90;53.70;;;;;;5009328;28;20462;-84
2022/03/22 01:40:06;;;;;;;18.30;14.00;;;13.00;53.70;;;;;;5012457;28;20465;-82
2022/03/22 01:42:34;;;;;;;16.90;14.57;;;13.00;53.60;;;;;;5011924;28;20475;-82
2022/03/22 01:45:01;;;;;;;17.30;13.43;;;12.90;53.70;;;;;;5010477;28;20478;-83
2022/03/22 01:47:28;;;;;;;19.57;13.33;;;12.90;53.80;;;;;;5013290;28;20456;-83
2022/03/22 01:49:55;;;;;;;21.80;14.90;;;12.80;53.80;;;;;;5011369;28;20468;-84
2022/03/22 01:52:24;;;;;;;18.67;14.40;;;12.80;54.00;;;;;;5009396;28;20458;-83
2022/03/22 01:54:55;;;;;;;17.10;13.30;;;12.70;54.10;;;;;;5017262;28;20509;-83
2022/03/22 01:57:24;;;;;;;17.93;13.70;;;12.70;54.00;;;;;;5016213;28;20470;-84
2022/03/22 01:59:51;;;;;;;16.40;12.60;;;12.60;54.00;;;;;;5012024;28;20522;-84
2022/03/22 02:07:50;;;;;;;15.17;13.57;;;12.70;54.30;;;;;;5010562;28;20462;-83
2022/03/22 02:10:18;;;;;;;18.00;14.43;;;12.60;54.10;;;;;;5003838;28;20988;-82
2022/03/22 02:12:45;;;;;;;15.80;13.07;;;12.60;54.00;;;;;;5018080;28;20450;-83
2022/03/22 02:15:12;;;;;;;17.90;13.97;;;12.50;54.20;;;;;;5017812;28;20532;-82
2022/03/22 02:17:45;;;;;;;18.93;13.13;;;12.40;54.30;;;;;;5016319;28;20470;-82
2022/03/22 02:20:13;;;;;;;18.70;13.87;;;12.40;54.60;;;;;;5014963;28;20450;-82
2022/03/22 02:23:00;;;;;;;16.30;13.33;;;12.30;54.80;;;;;;5019055;28;20488;-81
2022/03/22 02:25:26;;;;;;;19.13;14.17;;;12.40;55.00;;;;;;4989703;28;20481;-83
2022/03/22 02:27:53;;;;;;;15.90;12.87;;;12.30;54.90;;;;;;5020473;28;20493;-82
2022/03/22 02:30:23;;;;;;;20.30;13.50;;;12.30;54.90;;;;;;5017601;28;20454;-82
2022/03/22 02:32:58;;;;;;;14.93;13.17;;;12.40;54.90;;;;;;5015603;28;20481;-81
2022/03/22 02:35:25;;;;;;;18.73;13.23;;;12.40;54.30;;;;;;5014628;28;21003;-84
2022/03/22 02:37:52;;;;;;;14.90;13.00;;;12.30;54.40;;;;;;5018530;28;20835;-84
2022/03/22 02:40:19;;;;;;;15.77;12.33;;;12.30;54.50;;;;;;5028371;28;20516;-84
2022/03/22 02:42:50;;;;;;;16.93;14.63;;;12.10;54.40;;;;;;5025536;28;20472;-83
2022/03/22 02:45:18;;;;;;;16.77;12.80;;;12.10;54.50;;;;;;5028121;28;20505;-83
2022/03/22 02:47:45;;;;;;;15.67;13.03;;;12.10;54.60;;;;;;5031461;28;20437;-84
2022/03/22 02:50:12;;;;;;;19.20;13.27;;;12.00;54.60;;;;;;5019138;28;20431;-83
2022/03/22 02:52:40;;;;;;;17.13;13.43;;;12.00;54.80;;;;;;5023054;28;20539;-84
2022/03/22 02:55:09;;;;;;;21.53;14.20;;;12.20;54.70;;;;;;5015929;28;20526;-83
2022/03/22 02:57:37;;;;;;;16.13;13.60;;;12.10;54.70;;;;;;5016793;28;20460;-83
2022/03/22 03:00:07;;;;;;;17.93;13.03;;;12.20;54.60;;;;;;5011307;28;20469;-83
2022/03/22 03:02:49;;;;;;;18.77;14.73;;;12.20;54.80;;;;;;5009178;28;20487;-85
2022/03/22 03:05:18;;;;;;;19.83;13.83;;;12.10;54.70;;;;;;5012088;28;20490;-84
2022/03/22 03:07:44;;;;;;;16.30;13.23;;;12.10;54.60;;;;;;5012781;28;20517;-84
2022/03/22 03:10:11;;;;;;;15.43;13.43;;;12.10;54.10;;;;;;5018999;28;20502;-83
2022/03/22 03:12:38;;;;;;;15.03;12.80;;;12.00;54.20;;;;;;5015302;28;20508;-83
2022/03/22 03:15:08;;;;;;;17.50;13.03;;;12.10;54.50;;;;;;5016554;28;20851;-84
2022/03/22 03:17:38;;;;;;;17.87;14.93;;;11.90;54.50;;;;;;5012049;28;20442;-84
2022/03/22 03:20:06;;;;;;;18.93;14.07;;;12.00;54.70;;;;;;5010911;28;20526;-85
2022/03/22 03:22:34;;;;;;;17.30;13.10;;;11.90;55.10;;;;;;5011237;28;20484;-84
2022/03/22 03:25:00;;;;;;;20.37;14.20;;;11.90;55.50;;;;;;5014535;28;20877;-83
2022/03/22 03:27:30;;;;;;;15.40;13.50;;;11.90;54.70;;;;;;5026629;28;20486;-84
2022/03/22 03:29:57;;;;;;;14.47;12.97;;;11.80;54.50;;;;;;5011486;28;20461;-83
2022/03/22 03:32:25;;;;;;;14.47;12.67;;;11.70;54.70;;;;;;5010550;28;20508;-84
2022/03/22 03:34:52;;;;;;;17.30;14.27;;;11.80;54.90;;;;;;5011761;28;20478;-85
2022/03/22 03:37:19;;;;;;;16.83;13.43;;;12.00;54.40;;;;;;5017275;28;20546;-86
2022/03/22 03:39:53;;;;;;;15.17;12.50;;;12.00;53.80;;;;;;5008686;28;20795;-84
2022/03/22 03:42:20;;;;;;;16.70;14.10;;;11.90;53.80;;;;;;5026797;28;21011;-84
2022/03/22 03:47:34;;;;;;;23.37;14.03;;;11.70;55.10;;;;;;5010878;28;20446;-84
2022/03/22 03:50:03;;;;;;;16.60;13.03;;;11.70;55.20;;;;;;5006710;28;20459;-85
2022/03/22 03:52:33;;;;;;;15.60;12.23;;;11.60;55.30;;;;;;5014996;28;20921;-84
2022/03/22 03:55:00;;;;;;;14.73;12.53;;;11.70;55.10;;;;;;5015030;28;20478;-85
2022/03/22 03:57:27;;;;;;;20.07;13.43;;;11.80;54.70;;;;;;5012930;28;20592;-84
2022/03/22 03:59:56;;;;;;;28.37;14.00;;;12.00;53.90;;;;;;5026048;28;20462;-84
2022/03/22 04:02:23;;;;;;;14.93;12.70;;;11.90;53.90;;;;;;5010575;28;20686;-84
2022/03/22 04:04:55;;;;;;;15.50;12.00;;;11.80;54.20;;;;;;5010940;28;20475;-84
2022/03/22 04:07:24;;;;;;;17.43;12.53;;;11.80;54.00;;;;;;5026055;28;20958;-85
2022/03/22 04:09:54;;;;;;;15.93;12.27;;;11.60;54.40;;;;;;5011011;28;20454;-85
2022/03/22 04:12:24;;;;;;;17.93;13.77;;;11.60;54.80;;;;;;5011350;28;20816;-84
2022/03/22 04:14:54;;;;;;;15.80;12.87;;;11.60;54.80;;;;;;5010079;28;20485;-85
2022/03/22 04:17:23;;;;;;;14.70;12.30;;;11.70;54.60;;;;;;5010012;28;20885;-84
2022/03/22 04:19:53;;;;;;;13.90;11.90;;;11.50;54.30;;;;;;5026746;28;20454;-84
2022/03/22 04:22:20;;;;;;;16.87;12.03;;;11.60;54.40;;;;;;5007015;28;20482;-83
2022/03/22 04:24:50;;;;;;;16.03;12.80;;;11.60;53.70;;;;;;5029653;28;20581;-82
2022/03/22 04:32:49;;;;;;;16.73;11.47;;;11.20;53.90;;;;;;5008399;28;20522;-84
2022/03/22 04:35:24;;;;;;;16.60;11.67;;;11.10;54.00;;;;;;5016714;28;20478;-84
2022/03/22 04:37:55;;;;;;;14.43;11.70;;;11.10;54.00;;;;;;5009519;28;20551;-83
2022/03/22 04:40:22;;;;;;;13.70;12.00;;;11.10;54.10;;;;;;5013872;28;20473;-84
2022/03/22 04:42:51;;;;;;;16.60;12.00;;;11.00;54.10;;;;;;5009897;28;20505;-82
2022/03/22 04:45:21;;;;;;;17.07;12.90;;;11.20;54.50;;;;;;5011637;28;20599;-84
2022/03/22 04:47:47;;;;;;;17.30;12.47;;;11.50;54.40;;;;;;5024112;28;20450;-83
2022/03/22 04:50:16;;;;;;;14.83;11.63;;;11.40;54.20;;;;;;5008845;28;20489;-82
2022/03/22 04:58:15;;;;;;;17.50;13.27;;;11.30;54.00;;;;;;5011526;28;20489;-86
2022/03/22 05:00:42;;;;;;;14.77;11.80;;;11.30;54.10;;;;;;5009856;28;20538;-85
2022/03/22 05:03:09;;;;;;;17.87;12.30;;;11.10;54.40;;;;;;5012595;28;20474;-84
2022/03/22 05:08:21;;;;;;;16.10;12.87;;;10.90;54.90;;;;;;5008735;28;20467;-84
2022/03/22 05:10:53;;;;;;;15.80;12.60;;;10.90;55.10;;;;;;5012735;28;20451;-84
2022/03/22 05:13:20;;;;;;;14.80;11.80;;;10.90;55.10;;;;;;5016395;28;20488;-83
2022/03/22 05:15:48;;;;;;;15.73;12.30;;;10.90;55.20;;;;;;5014746;28;20795;-83
2022/03/22 05:18:15;;;;;;;14.77;12.10;;;11.00;55.30;;;;;;5014097;28;20462;-83
2022/03/22 05:20:47;;;;;;;15.33;13.00;;;11.10;54.90;;;;;;5020364;28;20492;-84
2022/03/22 05:23:17;;;;;;;14.33;12.83;;;10.90;55.00;;;;;;5014869;28;20470;-85
2022/03/22 05:25:44;;;;;;;15.07;11.93;;;11.00;55.40;;;;;;5014529;28;20947;-84
2022/03/22 05:28:11;;;;;;;13.80;11.87;;;10.90;55.30;;;;;;5012715;28;20839;-83
2022/03/22 05:30:38;;;;;;;15.50;12.60;;;10.70;56.10;;;;;;5012663;28;20458;-82
2022/03/22 05:33:08;;;;;;;15.53;12.20;;;10.80;56.20;;;;;;5012885;28;20485;-84
2022/03/22 05:35:35;;;;;;;17.90;12.27;;;10.80;56.40;;;;;;5017871;28;20482;-83
2022/03/22 05:38:03;;;;;;;15.67;12.50;;;10.90;57.00;;;;;;5014134;28;20470;-82
2022/03/22 05:40:30;;;;;;;17.27;12.50;;;10.90;56.40;;;;;;5015176;28;20462;-84
2022/03/22 05:43:00;;;;;;;16.23;12.93;;;10.90;56.10;;;;;;5016798;28;20532;-83
2022/03/22 05:45:27;;;;;;;14.73;11.57;;;10.90;56.40;;;;;;5041288;28;20541;-85
2022/03/22 05:47:54;;;;;;;15.90;11.10;;;10.70;56.20;;;;;;5019431;28;20459;-84
2022/03/22 05:50:21;;;;;;;16.83;12.90;;;10.70;56.00;;;;;;5018636;28;20492;-84
2022/03/22 05:52:49;;;;;;;18.17;12.33;;;10.60;56.70;;;;;;5034819;28;20449;-85
2022/03/22 05:55:19;;;;;;;20.63;14.33;;;10.50;57.00;;;;;;5025348;28;20461;-84
2022/03/22 05:57:46;;;;;;;15.80;13.20;;;10.80;60.00;;;;;;5028225;28;20522;-81
2022/03/22 06:00:14;;;;;;;15.63;12.40;;;10.90;60.90;;;;;;5016121;28;20466;-82
2022/03/22 06:02:45;;;;;;;18.00;12.90;;;10.80;62.00;;;;;;5026576;28;20539;-82
2022/03/22 06:05:14;;;;;;;15.57;13.20;;;11.00;61.30;;;;;;5017293;28;20513;-82
2022/03/22 06:07:43;;;;;;;18.87;13.03;;;11.30;59.80;;;;;;5031481;28;20486;-79
2022/03/22 06:10:14;;;;;;;20.73;12.93;;;11.40;59.20;;;;;;5018193;28;20486;-82
2022/03/22 06:12:47;;;;;;;21.87;12.90;;;11.50;57.40;;;;;;5011072;28;20493;-83
2022/03/22 06:15:17;;;;;;;22.33;13.60;;;11.50;57.30;;;;;;5017182;28;20509;-83
2022/03/22 06:17:56;;;;;;;29.70;15.03;;;11.60;56.80;;;;;;5015588;28;20469;-82
2022/03/22 06:20:31;;;;;;;25.40;14.50;;;11.90;55.80;;;;;;5026204;28;20470;-82
2022/03/22 06:22:59;;;;;;;18.27;13.67;;;12.80;54.10;;;;;;5015689;28;20470;-80
2022/03/22 06:25:27;;;;;;;26.40;13.33;;;13.50;52.10;;;;;;5020824;28;20569;-80
2022/03/22 06:27:58;;;;;;;19.83;13.73;;;13.20;51.40;;;;;;5017869;28;20506;-80
2022/03/22 06:30:27;;;;;;;21.80;14.63;;;12.70;51.80;;;;;;5017873;28;20458;-82
2022/03/22 06:33:00;;;;;;;20.77;16.40;;;12.10;53.20;;;;;;5017163;28;20461;-82
2022/03/22 06:35:29;;;;;;;20.00;13.60;;;11.60;53.80;;;;;;5026555;28;20544;-81
2022/03/22 06:38:00;;;;;;;20.63;12.90;;;11.60;54.80;;;;;;5020164;28;20454;-83
2022/03/22 06:40:32;;;;;;;20.47;13.40;;;11.30;55.00;;;;;;5013740;28;20450;-83
2022/03/22 06:43:01;;;;;;;22.67;14.60;;;11.30;55.70;;;;;;5016141;28;20541;-82
2022/03/22 06:45:32;;;;;;;26.40;15.33;;;11.20;55.20;;;;;;5019999;28;20486;-83
2022/03/22 06:48:02;;;;;;;23.80;14.10;;;11.20;54.80;;;;;;5022298;28;20455;-81
2022/03/22 06:50:31;;;;;;;23.23;14.10;;;11.20;55.10;;;;;;5036970;28;20474;-82
2022/03/22 06:52:58;;;;;;;23.23;14.50;;;11.30;55.50;;;;;;5013868;28;21171;-82
2022/03/22 06:55:28;;;;;;;23.07;13.90;;;11.40;55.50;;;;;;5016473;28;21015;-81
2022/03/22 06:57:56;;;;;;;25.37;15.77;;;11.20;55.20;;;;;;5020737;28;20484;-82
2022/03/22 07:00:28;;;;;;;23.43;13.90;;;11.00;55.60;;;;;;5019431;28;20454;-83
2022/03/22 07:02:57;;;;;;;16.20;11.90;;;11.00;56.00;;;;;;5019141;28;20481;-84
2022/03/22 07:05:24;;;;;;;16.30;12.90;;;11.10;56.10;;;;;;5007312;28;20481;-85
2022/03/22 07:07:51;;;;;;;18.03;13.00;;;10.90;56.00;;;;;;5012338;28;20458;-84
2022/03/22 07:10:18;;;;;;;17.87;13.63;;;11.00;56.00;;;;;;5014380;28;20466;-84
2022/03/22 07:12:56;;;;;;;18.80;13.03;;;10.90;55.80;;;;;;5013411;28;20493;-84
2022/03/22 07:15:30;;;;;;;17.23;13.57;;;10.90;56.10;;;;;;5028513;28;20998;-84
2022/03/22 07:17:58;;;;;;;13.40;10.50;;;11.10;55.80;;;;;;5017695;28;20462;-85
2022/03/22 07:20:26;;;;;;;16.10;12.23;;;11.50;54.50;;;;;;5012789;28;20567;-84
2022/03/22 07:22:57;;;;;;;19.50;12.43;;;11.50;54.20;;;;;;5015864;28;21003;-82
2022/03/22 07:25:24;;;;;;;17.37;11.63;;;13.20;53.70;;;;;;5007440;28;20522;-83
2022/03/22 07:27:55;;;;;;;19.23;12.97;;;14.90;50.20;;;;;;5028351;28;20462;-85
2022/03/22 07:30:24;;;;;;;17.00;13.30;;;16.00;48.00;;;;;;5012326;28;20477;-85
2022/03/22 07:32:51;;;;;;;16.90;12.90;;;17.40;45.60;;;;;;5029783;28;20454;-86
2022/03/22 07:35:19;;;;;;;14.93;12.50;;;18.40;43.70;;;;;;5013299;28;20466;-84
2022/03/22 07:37:50;;;;;;;15.60;12.70;;;18.30;43.50;;;;;;5024219;28;20466;-85
2022/03/22 07:40:18;;;;;;;19.50;15.77;;;19.60;41.90;;;;;;5013728;28;20470;-84
2022/03/22 07:42:48;;;;;;;16.53;12.00;;;19.70;40.80;;;;;;5027423;28;20470;-83
2022/03/22 07:45:19;;;;;;;15.20;13.60;;;20.10;39.90;;;;;;5010758;28;20499;-84
2022/03/22 07:47:47;;;;;;;17.00;14.00;;;20.80;39.10;;;;;;5012075;28;20517;-86
2022/03/22 07:53:10;;;;;;;17.60;13.30;;;21.20;37.50;;;;;;5015721;28;20470;-85
2022/03/22 07:55:45;;;;;;;15.57;13.67;;;21.80;37.30;;;;;;5018707;28;20482;-83
2022/03/22 07:58:20;;;;;;;16.00;13.47;;;21.50;36.30;;;;;;5013867;28;20490;-84
2022/03/22 08:00:57;;;;;;;16.00;13.17;;;22.30;36.30;;;;;;5015783;28;20465;-81
2022/03/22 08:03:25;;;;;;;15.83;13.30;;;21.80;34.80;;;;;;5016199;28;20573;-84
2022/03/22 08:05:59;;;;;;;13.50;12.10;;;21.60;35.30;;;;;;5013874;28;20459;-85
2022/03/22 08:08:34;;;;;;;14.20;12.73;;;21.90;34.80;;;;;;5015836;28;20545;-86
2022/03/22 08:11:05;;;;;;;15.80;13.17;;;21.00;35.40;;;;;;5016277;28;20458;-84
2022/03/22 08:13:38;;;;;;;15.23;13.43;;;19.30;36.10;;;;;;5019944;28;20470;-84
2022/03/22 08:16:06;;;;;;;14.93;12.63;;;17.50;38.30;;;;;;5017353;28;20506;-83
2022/03/22 08:18:33;;;;;;;19.17;15.40;;;16.20;41.10;;;;;;5017822;28;20462;-84
2022/03/22 08:21:01;;;;;;;16.97;12.43;;;15.40;41.70;;;;;;5015683;28;21005;-84
2022/03/22 08:23:28;;;;;;;17.40;13.10;;;15.10;43.00;;;;;;5017659;28;20500;-83
2022/03/22 08:25:55;;;;;;;21.40;13.07;;;14.70;43.70;;;;;;5020843;28;20526;-82
2022/03/22 08:28:24;;;;;;;14.93;12.83;;;14.90;44.00;;;;;;5016725;28;20515;-84
2022/03/22 08:30:54;;;;;;;15.00;12.40;;;14.90;44.00;;;;;;5033457;28;20526;-86
2022/03/22 08:33:21;;;;;;;13.40;12.00;;;15.00;44.20;;;;;;5033801;28;20498;-86
2022/03/22 08:35:56;;;;;;;16.80;12.87;;;15.10;43.90;;;;;;5030951;28;20489;-84
2022/03/22 08:38:24;;;;;;;14.47;12.73;;;14.90;43.40;;;;;;5031949;28;20462;-87
2022/03/22 08:40:56;;;;;;;15.80;12.40;;;14.90;44.30;;;;;;5029286;28;20458;-84
2022/03/22 08:43:25;;;;;;;12.77;11.50;;;14.90;44.70;;;;;;5027928;28;20501;-87
2022/03/22 08:45:58;;;;;;;17.93;12.53;;;15.00;44.70;;;;;;5029498;28;20434;-86
2022/03/22 08:48:25;;;;;;;19.13;12.60;;;14.80;44.80;;;;;;5030642;28;20508;-84
2022/03/22 08:50:53;;;;;;;13.17;11.77;;;14.80;44.90;;;;;;5024600;28;20455;-84
2022/03/22 08:53:20;;;;;;;14.23;11.80;;;14.70;44.50;;;;;;5035396;28;20469;-85
2022/03/22 08:55:51;;;;;;;14.20;11.93;;;14.90;44.50;;;;;;5004591;28;20501;-83
2022/03/22 08:58:18;;;;;;;17.00;12.10;;;14.70;44.40;;;;;;5012097;28;20537;-83
2022/03/22 09:00:45;;;;;;;17.83;12.70;;;15.00;44.60;;;;;;5031213;28;20525;-82
2022/03/22 09:03:18;;;;;;;14.30;12.80;;;15.00;44.00;;;;;;5019946;28;20481;-84
2022/03/22 09:08:36;;;;;;;14.97;12.87;;;14.30;44.80;;;;;;5023762;28;20454;-86
2022/03/22 09:11:05;;;;;;;12.87;11.57;;;14.90;44.60;;;;;;5026003;28;20462;-85
2022/03/22 09:13:37;;;;;;;13.23;11.47;;;14.90;44.10;;;;;;5038132;28;20446;-85
2022/03/22 09:16:09;;;;;;;14.23;11.80;;;14.80;44.00;;;;;;5035027;28;20454;-86
2022/03/22 09:18:39;;;;;;;13.70;11.97;;;15.10;43.20;;;;;;5032509;28;20473;-85
2022/03/22 09:21:06;;;;;;;13.83;11.50;;;14.70;42.90;;;;;;5033610;28;20446;-84
2022/03/22 09:23:34;;;;;;;14.70;11.30;;;15.00;43.00;;;;;;5037196;28;20569;-81
2022/03/22 09:26:02;;;;;;;13.53;11.90;;;15.00;43.20;;;;;;5014731;28;20456;-82
2022/03/22 09:28:31;;;;;;;15.80;12.83;;;15.20;43.00;;;;;;5017784;28;20474;-84
2022/03/22 09:30:58;;;;;;;17.47;13.57;;;15.10;42.80;;;;;;5019436;28;20498;-84
2022/03/22 09:33:31;;;;;;;12.63;11.30;;;15.20;43.20;;;;;;5012878;28;20462;-84
2022/03/22 09:36:01;;;;;;;17.10;12.13;;;15.40;43.30;;;;;;5020933;28;20446;-83
2022/03/22 09:38:42;;;;;;;14.60;13.03;;;15.60;42.40;;;;;;5020393;28;20477;-83
2022/03/22 09:41:13;;;;;;;13.70;12.33;;;15.50;42.30;;;;;;5019068;28;20478;-83
2022/03/22 09:43:48;;;;;;;15.50;13.27;;;15.60;42.30;;;;;;5016756;28;20489;-83
2022/03/22 09:46:22;;;;;;;12.57;11.27;;;15.80;41.90;;;;;;5025516;28;20557;-85
2022/03/22 09:48:49;;;;;;;13.60;11.80;;;15.90;41.30;;;;;;5019910;28;20473;-84
2022/03/22 09:54:03;;;;;;;13.53;11.50;;;15.90;39.40;;;;;;5025312;28;20481;-82
2022/03/22 09:56:31;;;;;;;13.03;11.10;;;15.80;39.10;;;;;;5016830;28;20454;-84
2022/03/22 09:59:03;;;;;;;12.40;11.03;;;16.70;38.80;;;;;;5025559;28;20492;-84
2022/03/22 10:01:35;;;;;;;13.00;11.17;;;18.50;36.50;;;;;;5013618;28;20545;-84
2022/03/22 10:04:13;;;;;;;12.70;11.20;;;19.80;34.30;;;;;;5017124;28;20496;-85
2022/03/22 10:06:57;;;;;;;14.70;12.60;;;20.20;33.20;;;;;;5020784;28;20465;-85
2022/03/22 10:09:36;;;;;;;14.53;13.03;;;21.80;31.70;;;;;;5017136;28;20458;-83
2022/03/22 10:12:12;;;;;;;13.30;11.80;;;21.80;29.90;;;;;;5020220;28;20450;-85
2022/03/22 10:14:52;;;;;;;13.67;11.87;;;21.80;30.30;;;;;;5018621;28;20509;-85
2022/03/22 10:17:31;;;;;;;12.70;11.40;;;22.70;29.90;;;;;;5017643;28;20465;-82
2022/03/22 10:20:05;;;;;;;13.03;11.73;;;22.60;29.00;;;;;;5024255;28;20462;-83
2022/03/22 10:22:43;;;;;;;14.00;12.40;;;23.60;28.40;;;;;;5017784;28;20576;-83
2022/03/22 10:25:20;;;;;;;14.40;13.00;;;23.70;27.80;;;;;;5014527;28;20478;-84
2022/03/22 10:27:58;;;;;;;15.00;12.40;;;23.80;26.90;;;;;;5021813;28;20463;-85
2022/03/22 10:30:40;;;;;;;14.17;12.77;;;23.10;27.30;;;;;;5013793;28;20470;-85
2022/03/22 10:33:14;;;;;;;14.90;13.03;;;22.70;27.70;;;;;;5022754;28;20482;-86
2022/03/22 10:35:51;;;;;;;13.97;12.67;;;23.50;27.60;;;;;;5024034;28;20553;-82
2022/03/22 10:38:19;;;;;;;13.90;12.30;;;24.40;27.10;;;;;;5017798;28;20489;-85
2022/03/22 10:40:49;;;;;;;14.30;12.90;;;23.60;27.00;;;;;;5017139;28;20468;-85
2022/03/22 10:43:25;;;;;;;15.53;14.03;;;22.10;28.00;;;;;;5027241;28;20481;-85
2022/03/22 10:46:02;;;;;;;14.03;12.33;;;21.20;28.90;;;;;;5014450;28;20462;-84
2022/03/22 10:48:37;;;;;;;13.33;12.10;;;21.50;29.50;;;;;;5015110;28;20462;-83
2022/03/22 10:51:06;;;;;;;13.40;12.13;;;22.70;28.90;;;;;;5026257;28;20489;-84
2022/03/22 10:53:35;;;;;;;13.03;11.93;;;23.20;27.70;;;;;;5021968;28;20972;-83
2022/03/22 10:56:05;;;;;;;13.93;12.50;;;23.30;27.40;;;;;;5017727;28;20484;-83
2022/03/22 10:58:36;;;;;;;14.50;13.10;;;23.00;27.60;;;;;;5032270;28;20466;-84
2022/03/22 11:01:14;;;;;;;14.20;12.70;;;22.70;28.10;;;;;;5017659;28;20458;-84
2022/03/22 11:03:43;;;;;;;13.83;12.53;;;23.50;27.60;;;;;;5045673;28;20500;-85
2022/03/22 11:06:18;;;;;;;13.57;12.27;;;23.70;27.70;;;;;;5036179;28;20465;-86
2022/03/22 11:08:52;;;;;;;14.10;12.27;;;24.10;27.20;;;;;;5035685;28;21314;-83
2022/03/22 11:11:25;;;;;;;12.90;11.77;;;24.20;27.70;;;;;;5026039;28;20477;-85
2022/03/22 11:13:59;;;;;;;11.73;10.73;;;24.90;27.00;;;;;;5011100;28;20524;-83
2022/03/22 11:16:41;;;;;;;12.77;11.67;;;24.90;26.60;;;;;;5016194;28;20546;-83
2022/03/22 11:19:15;;;;;;;14.13;11.47;;;23.60;27.10;;;;;;5011574;28;20512;-85
2022/03/22 11:21:47;;;;;;;12.90;11.80;;;23.20;27.50;;;;;;5013902;28;20454;-86
2022/03/22 11:24:25;;;;;;;14.37;12.87;;;23.40;27.60;;;;;;5012777;28;20490;-84
2022/03/22 11:26:56;;;;;;;13.80;12.27;;;23.20;27.70;;;;;;5014257;28;20442;-85
2022/03/22 11:29:32;;;;;;;16.00;12.70;;;23.80;27.90;;;;;;5015838;28;20454;-86
2022/03/22 11:34:49;;;;;;;13.97;11.60;;;25.30;26.20;;;;;;5025973;28;20569;-85
2022/03/22 11:37:36;;;;;;;13.03;11.70;;;24.10;26.60;;;;;;5018846;28;20875;-84
2022/03/22 11:43:15;;;;;;;11.67;10.43;;;23.50;26.90;;;;;;5017563;28;20458;-83
2022/03/22 11:45:53;;;;;;;10.57;9.57;;;24.30;26.20;;;;;;5015121;28;20443;-84
2022/03/22 11:48:34;;;;;;;11.70;10.53;;;24.50;26.40;;;;;;5019840;28;20465;-85
2022/03/22 11:51:11;;;;;;;10.97;9.87;;;25.30;25.50;;;;;;5027716;28;20468;-85
2022/03/22 11:53:47;;;;;;;10.60;9.70;;;24.90;25.50;;;;;;5013926;28;20453;-86
2022/03/22 11:56:14;;;;;;;11.13;9.73;;;25.20;25.60;;;;;;5018697;28;20803;-85
2022/03/22 11:58:51;;;;;;;11.57;10.47;;;25.10;25.40;;;;;;5017547;28;20461;-85
2022/03/22 12:01:57;;;;;;;10.97;9.97;;;25.40;25.20;;;;;;5017514;28;20546;-87
2022/03/22 12:04:43;;;;;;;9.50;8.70;;;25.50;24.70;;;;;;5030371;28;20565;-85
2022/03/22 12:07:39;;;;;;;10.83;8.60;;;24.40;25.20;;;;;;5008269;28;20530;-85
2022/03/22 12:10:31;;;;;;;12.23;9.63;;;25.60;24.70;;;;;;5014602;28;20478;-85
2022/03/22 12:13:23;;;;;;;10.53;8.97;;;25.60;24.30;;;;;;5030095;28;20531;-86
2022/03/22 12:16:32;;;;;;;9.73;8.73;;;25.30;25.00;;;;;;5016809;28;20458;-86
2022/03/22 12:19:26;;;;;;;9.07;8.27;;;24.60;25.20;;;;;;4982534;28;20509;-87
2022/03/22 12:22:16;;;;;;;9.50;8.60;;;24.30;25.00;;;;;;5015504;28;20462;-84
2022/03/22 12:29:00;;;;;;;12.90;8.07;;;24.80;24.40;;;;;;5010652;28;20553;-87
2022/03/22 12:32:26;;;;;;;10.57;8.70;;;24.80;24.00;;;;;;5017092;28;20458;-86
2022/03/22 12:35:34;;;;;;;9.30;8.00;;;24.30;24.40;;;;;;5017319;28;20473;-86
2022/03/22 12:38:21;;;;;;;8.87;8.07;;;24.50;24.40;;;;;;5033370;28;20462;-85
2022/03/22 12:44:10;;;;;;;10.20;9.30;;;23.90;24.70;;;;;;5021144;28;20509;-87
2022/03/22 12:47:21;;;;;;;10.03;9.00;;;24.50;24.10;;;;;;5019996;28;20442;-86
2022/03/22 12:50:19;;;;;;;9.10;8.30;;;24.20;23.70;;;;;;5012761;28;20482;-87
2022/03/22 12:53:00;;;;;;;9.73;8.73;;;24.40;23.40;;;;;;5034227;28;20443;-86
2022/03/22 12:55:42;;;;;;;8.93;8.03;;;24.20;23.00;;;;;;5021884;28;20512;-86
2022/03/22 12:58:25;;;;;;;8.57;7.67;;;23.50;23.70;;;;;;5019758;28;20455;-86
2022/03/22 13:01:02;;;;;;;8.43;7.60;;;23.30;24.00;;;;;;5030630;28;20458;-85
2022/03/22 13:03:45;;;;;;;9.87;8.90;;;23.60;23.70;;;;;;5027062;28;20438;-88
2022/03/22 13:06:28;;;;;;;9.47;8.53;;;23.70;23.10;;;;;;5030290;28;20505;-87
2022/03/22 13:12:13;;;;;;;10.67;9.53;;;24.00;22.50;;;;;;5026194;28;20502;-87
2022/03/22 13:15:19;;;;;;;10.10;9.20;;;23.70;22.60;;;;;;5025293;28;20471;-87
2022/03/22 13:20:59;;;;;;;10.03;8.50;;;24.00;23.80;;;;;;5027197;28;20481;-86
2022/03/22 13:23:46;;;;;;;11.67;10.00;;;24.00;23.00;;;;;;5013186;28;20545;-83
2022/03/22 13:26:22;;;;;;;11.23;10.07;;;24.50;23.30;;;;;;5022026;28;20870;-85
2022/03/22 13:28:54;;;;;;;12.20;10.93;;;24.40;23.20;;;;;;5017817;28;20446;-84
2022/03/22 13:31:36;;;;;;;11.03;9.83;;;23.90;23.90;;;;;;5013470;28;20469;-84
2022/03/22 13:34:07;;;;;;;11.37;10.17;;;23.70;23.90;;;;;;5017406;28;20473;-83
2022/03/22 13:36:42;;;;;;;13.23;10.20;;;23.50;23.80;;;;;;5011291;28;20489;-85
2022/03/22 13:39:24;;;;;;;11.63;10.53;;;23.40;23.50;;;;;;5013140;28;20459;-84
2022/03/22 13:42:24;;;;;;;10.60;9.57;;;23.80;23.80;;;;;;5023339;28;20442;-85